createdAt,value
2018-09-24T00:01:34.972Z,15.00
2018-09-24T00:04:03.412Z,12.77
2018-09-24T00:06:31.878Z,17.30
2018-09-24T00:09:00.353Z,18.83
2018-09-24T00:11:28.809Z,18.40
2018-09-24T00:13:57.446Z,18.23
2018-09-24T00:16:25.885Z,17.13
2018-09-24T00:18:54.309Z,19.57
2018-09-24T00:21:22.728Z,18.30
2018-09-24T00:23:51.146Z,20.00
2018-09-24T00:26:19.582Z,19.70
2018-09-24T00:28:48.001Z,18.40
2018-09-24T00:31:16.454Z,21.07
2018-09-24T00:33:44.841Z,20.20
2018-09-24T00:36:13.666Z,19.90
2018-09-24T00:38:42.470Z,17.10
2018-09-24T00:41:10.973Z,18.57
2018-09-24T00:43:39.588Z,20.33
2018-09-24T00:46:08.250Z,20.33
2018-09-24T00:48:36.801Z,18.67
2018-09-24T00:51:05.298Z,20.13
2018-09-24T00:53:33.825Z,20.80
2018-09-24T00:56:03.350Z,19.47
2018-09-24T00:58:31.783Z,19.17
2018-09-24T01:01:00.274Z,22.20
2018-09-24T01:03:28.746Z,22.00
2018-09-24T01:05:57.538Z,20.27
2018-09-24T01:08:26.046Z,18.57
2018-09-24T01:10:55.118Z,19.40
2018-09-24T01:13:23.681Z,22.60
2018-09-24T01:15:52.265Z,19.57
2018-09-24T01:18:20.716Z,22.13
2018-09-24T01:20:49.217Z,15.83
2018-09-24T01:23:17.678Z,16.43
2018-09-24T01:25:47.122Z,17.17
2018-09-24T01:28:15.811Z,19.77
2018-09-24T01:30:44.368Z,17.07
2018-09-24T01:33:12.933Z,16.10
2018-09-24T01:35:42.124Z,15.30
2018-09-24T01:38:10.625Z,17.00
2018-09-24T01:40:39.165Z,14.70
2018-09-24T01:43:07.698Z,15.90
2018-09-24T01:45:36.189Z,13.13
2018-09-24T01:48:06.001Z,15.20
2018-09-24T01:50:34.713Z,11.97
2018-09-24T01:53:05.505Z,15.17
2018-09-24T01:55:34.089Z,14.77
2018-09-24T01:58:02.660Z,17.10
2018-09-24T02:00:31.103Z,12.67
2018-09-24T02:02:59.549Z,13.70
2018-09-24T02:05:28.129Z,13.67
2018-09-24T02:07:56.974Z,12.80
2018-09-24T02:10:26.464Z,14.10
2018-09-24T02:12:56.661Z,14.73
2018-09-24T02:15:30.004Z,14.57
2018-09-24T02:17:58.542Z,15.90
2018-09-24T02:20:27.099Z,12.67
2018-09-24T02:22:55.581Z,14.23
2018-09-24T02:25:24.096Z,14.90
2018-09-24T02:27:52.605Z,13.33
2018-09-24T02:30:21.151Z,16.47
2018-09-24T02:32:49.617Z,17.87
2018-09-24T02:35:18.189Z,15.17
2018-09-24T02:37:46.602Z,12.37
2018-09-24T02:40:25.513Z,14.23
2018-09-24T02:42:53.955Z,15.67
2018-09-24T02:45:22.483Z,17.57
2018-09-24T02:47:50.960Z,12.53
2018-09-24T02:50:19.849Z,13.93
2018-09-24T02:52:48.551Z,11.77
2018-09-24T02:55:18.413Z,15.10
2018-09-24T02:57:47.098Z,14.53
2018-09-24T03:00:21.373Z,16.30
2018-09-24T03:02:49.996Z,14.03
2018-09-24T03:05:18.501Z,17.77
2018-09-24T03:07:47.001Z,13.93
2018-09-24T03:10:15.546Z,17.63
2018-09-24T03:12:48.066Z,16.03
2018-09-24T03:15:17.017Z,11.73
2018-09-24T03:17:45.489Z,14.63
2018-09-24T03:20:14.027Z,14.07
2018-09-24T03:22:42.512Z,17.57
2018-09-24T03:25:17.197Z,14.43
2018-09-24T03:27:45.893Z,15.23
2018-09-24T03:30:14.386Z,13.83
2018-09-24T03:32:42.965Z,12.90
2018-09-24T03:35:11.363Z,17.07
2018-09-24T03:37:39.780Z,17.20
2018-09-24T03:40:08.210Z,14.07
2018-09-24T03:42:36.859Z,14.00
2018-09-24T03:45:05.356Z,15.90
2018-09-24T03:47:33.746Z,14.43
2018-09-24T03:50:02.174Z,16.10
2018-09-24T03:52:30.614Z,17.80
2018-09-24T03:54:59.027Z,15.60
2018-09-24T03:57:27.499Z,14.20
2018-09-24T03:59:55.890Z,15.00
2018-09-24T04:02:24.350Z,17.73
2018-09-24T04:04:57.981Z,18.33
2018-09-24T04:07:31.508Z,15.43
2018-09-24T04:10:05.307Z,19.60
2018-09-24T04:12:38.977Z,14.87
2018-09-24T04:15:12.770Z,12.53
2018-09-24T04:17:46.470Z,18.70
2018-09-24T04:20:20.115Z,14.93
2018-09-24T04:22:53.694Z,17.70
2018-09-24T04:25:29.422Z,14.13
2018-09-24T04:28:03.130Z,15.87
2018-09-24T04:30:36.946Z,14.90
2018-09-24T04:33:10.630Z,15.17
2018-09-24T04:35:44.294Z,16.03
2018-09-24T04:38:17.972Z,14.90
2018-09-24T04:40:51.850Z,16.60
2018-09-24T04:43:25.505Z,17.70
2018-09-24T04:45:59.229Z,13.60
2018-09-24T04:48:33.062Z,14.67
2018-09-24T04:51:06.668Z,15.80
2018-09-24T04:53:40.542Z,13.77
2018-09-24T04:56:14.381Z,12.13
2018-09-24T04:58:48.094Z,12.20
2018-09-24T05:01:21.677Z,15.00
2018-09-24T05:03:55.501Z,11.27
2018-09-24T05:06:29.197Z,12.80
2018-09-24T05:09:02.831Z,13.50
2018-09-24T05:11:36.590Z,13.90
2018-09-24T05:14:10.382Z,11.90
2018-09-24T05:16:44.155Z,14.13
2018-09-24T05:19:17.742Z,13.97
2018-09-24T05:21:51.402Z,14.00
2018-09-24T05:24:25.097Z,10.67
2018-09-24T05:26:58.693Z,13.77
2018-09-24T05:29:32.455Z,12.37
2018-09-24T05:32:06.282Z,13.23
2018-09-24T05:34:40.014Z,16.43
2018-09-24T05:37:13.606Z,13.10
2018-09-24T05:39:47.306Z,14.33
2018-09-24T05:42:21.032Z,14.40
2018-09-24T05:44:54.768Z,13.40
2018-09-24T05:47:28.591Z,14.70
2018-09-24T05:50:02.206Z,12.33
2018-09-24T05:52:35.814Z,11.30
2018-09-24T05:55:09.465Z,11.07
2018-09-24T05:57:43.260Z,12.97
2018-09-24T06:00:17.045Z,14.20
2018-09-24T06:02:50.802Z,12.47
2018-09-24T06:05:24.449Z,9.57
2018-09-24T06:07:58.061Z,12.80
2018-09-24T06:10:31.835Z,12.97
2018-09-24T06:13:05.628Z,8.53
2018-09-24T06:15:39.701Z,11.43
2018-09-24T06:18:13.261Z,12.53
2018-09-24T06:20:47.042Z,10.03
2018-09-24T06:23:20.850Z,10.20
2018-09-24T06:25:54.510Z,13.20
2018-09-24T06:28:31.300Z,12.00
2018-09-24T06:31:04.966Z,10.63
2018-09-24T06:33:38.949Z,11.00
2018-09-24T06:36:12.551Z,11.00
2018-09-24T06:38:46.360Z,8.30
2018-09-24T06:41:20.269Z,9.67
2018-09-24T06:43:54.024Z,9.73
2018-09-24T06:46:27.613Z,16.30
2018-09-24T06:49:01.353Z,8.70
2018-09-24T06:51:35.205Z,18.67
2018-09-24T06:54:08.843Z,13.40
2018-09-24T06:56:42.317Z,11.10
2018-09-24T06:59:16.088Z,6.50
2018-09-24T07:01:49.699Z,6.83
2018-09-24T07:04:23.528Z,8.40
2018-09-24T07:06:57.177Z,11.07
2018-09-24T07:09:30.981Z,10.20
2018-09-24T07:12:04.586Z,9.73
2018-09-24T07:14:38.382Z,11.80
2018-09-24T07:17:12.157Z,7.50
2018-09-24T07:19:45.897Z,7.00
2018-09-24T07:22:19.653Z,8.53
2018-09-24T07:24:53.361Z,9.47
2018-09-24T07:27:27.127Z,7.87
2018-09-24T07:30:00.857Z,7.37
2018-09-24T07:32:34.622Z,9.80
2018-09-24T07:35:12.079Z,9.67
2018-09-24T07:37:45.793Z,10.63
2018-09-24T07:40:19.526Z,8.27
2018-09-24T07:42:53.284Z,7.97
2018-09-24T07:45:27.054Z,8.17
2018-09-24T07:48:00.643Z,6.20
2018-09-24T07:50:34.396Z,6.73
2018-09-24T07:53:07.849Z,13.23
2018-09-24T07:55:41.638Z,7.13
2018-09-24T07:58:15.158Z,3.93
2018-09-24T08:00:48.833Z,9.70
2018-09-24T08:03:22.431Z,8.33
2018-09-24T08:05:56.154Z,8.97
2018-09-24T08:08:29.910Z,7.80
2018-09-24T08:11:03.493Z,6.43
2018-09-24T08:13:37.246Z,8.67
2018-09-24T08:16:11.038Z,9.23
2018-09-24T08:18:44.671Z,6.97
2018-09-24T08:21:18.482Z,5.00
2018-09-24T08:23:52.208Z,6.97
2018-09-24T08:26:26.042Z,4.97
2018-09-24T08:28:59.823Z,4.33
2018-09-24T08:31:33.389Z,4.60
2018-09-24T08:34:07.071Z,6.43
2018-09-24T08:36:40.845Z,6.40
2018-09-24T08:39:14.632Z,8.23
2018-09-24T08:41:48.398Z,5.07
2018-09-24T08:44:22.743Z,5.23
2018-09-24T08:46:56.463Z,3.63
2018-09-24T08:49:30.237Z,6.13
2018-09-24T08:52:03.833Z,6.27
2018-09-24T08:54:37.598Z,5.83
2018-09-24T08:57:11.992Z,7.93
2018-09-24T08:59:45.727Z,4.77
2018-09-24T09:02:19.505Z,5.50
2018-09-24T09:04:53.372Z,7.13
2018-09-24T09:07:27.018Z,4.97
2018-09-24T09:10:00.879Z,5.27
2018-09-24T09:12:34.610Z,3.43
2018-09-24T09:15:08.364Z,5.77
2018-09-24T09:17:42.013Z,6.47
2018-09-24T09:20:15.642Z,7.30
2018-09-24T09:22:49.081Z,3.60
2018-09-24T09:25:22.877Z,6.37
2018-09-24T09:27:56.424Z,3.13
2018-09-24T09:30:29.966Z,4.60
2018-09-24T09:33:03.712Z,5.27
2018-09-24T09:35:37.341Z,6.90
2018-09-24T09:38:10.985Z,2.20
2018-09-24T09:40:44.670Z,3.57
2018-09-24T09:43:18.419Z,4.00
2018-09-24T09:45:52.161Z,4.07
2018-09-24T09:48:25.857Z,6.60
2018-09-24T09:51:01.058Z,7.47
2018-09-24T09:53:34.836Z,3.23
2018-09-24T09:56:08.480Z,4.50
2018-09-24T09:58:42.221Z,4.03
2018-09-24T10:01:15.961Z,5.93
2018-09-24T10:03:49.558Z,3.93
2018-09-24T10:06:23.402Z,5.47
2018-09-24T10:08:57.053Z,2.13
2018-09-24T10:11:34.001Z,2.87
2018-09-24T10:14:07.796Z,7.50
2018-09-24T10:16:41.413Z,6.57
2018-09-24T10:19:15.227Z,5.67
2018-09-24T10:21:49.074Z,3.17
2018-09-24T10:24:22.608Z,1.93
2018-09-24T10:26:56.273Z,4.77
2018-09-24T10:29:29.897Z,4.43
2018-09-24T10:32:03.392Z,1.10
2018-09-24T10:34:37.140Z,1.87
2018-09-24T10:37:10.857Z,5.27
2018-09-24T10:39:44.566Z,4.13
2018-09-24T10:42:18.223Z,2.90
2018-09-24T10:44:51.894Z,4.63
2018-09-24T10:47:25.630Z,4.50
2018-09-24T10:49:59.404Z,7.73
2018-09-24T10:52:32.969Z,6.60
2018-09-24T10:55:06.519Z,4.67
2018-09-24T10:57:40.153Z,3.17
2018-09-24T11:00:13.811Z,4.83
2018-09-24T11:02:47.505Z,5.53
2018-09-24T11:05:21.221Z,3.40
2018-09-24T11:07:54.746Z,7.33
2018-09-24T11:10:28.449Z,3.37
2018-09-24T11:13:02.080Z,5.50
2018-09-24T11:15:35.594Z,4.13
2018-09-24T11:18:09.188Z,2.20
2018-09-24T11:20:42.921Z,2.77
2018-09-24T11:23:16.614Z,2.17
2018-09-24T11:25:50.330Z,4.80
2018-09-24T11:28:24.014Z,2.77
2018-09-24T11:30:57.810Z,3.37
2018-09-24T11:33:31.504Z,2.93
2018-09-24T11:36:05.259Z,4.67
2018-09-24T11:38:38.987Z,2.80
2018-09-24T11:41:12.689Z,5.93
2018-09-24T11:43:46.317Z,3.07
2018-09-24T11:46:20.038Z,2.87
2018-09-24T11:48:54.502Z,2.20
2018-09-24T11:51:28.266Z,6.10
2018-09-24T11:54:01.941Z,3.20
2018-09-24T11:56:35.630Z,4.93
2018-09-24T11:59:09.401Z,3.40
2018-09-24T12:01:43.153Z,1.67
2018-09-24T12:04:16.843Z,2.27
2018-09-24T12:06:50.625Z,2.07
2018-09-24T12:09:24.297Z,4.13
2018-09-24T12:11:58.132Z,3.70
2018-09-24T12:14:31.814Z,1.83
2018-09-24T12:17:05.561Z,4.10
2018-09-24T12:19:39.177Z,2.47
2018-09-24T12:22:12.893Z,2.93
2018-09-24T12:24:46.753Z,4.00
2018-09-24T12:27:20.401Z,3.13
2018-09-24T12:29:54.045Z,5.13
2018-09-24T12:32:27.891Z,2.53
2018-09-24T12:35:01.378Z,1.53
2018-09-24T12:37:35.114Z,2.33
2018-09-24T12:40:08.849Z,3.00
2018-09-24T12:42:42.459Z,3.03
2018-09-24T12:45:16.168Z,4.60
2018-09-24T12:47:49.940Z,4.03
2018-09-24T12:50:23.498Z,5.53
2018-09-24T12:52:57.264Z,1.50
2018-09-24T12:55:30.973Z,1.57
2018-09-24T12:58:04.578Z,1.93
2018-09-24T13:00:38.234Z,2.40
2018-09-24T13:03:12.073Z,2.40
2018-09-24T13:05:45.857Z,3.23
2018-09-24T13:08:19.498Z,4.33
2018-09-24T13:10:53.405Z,1.93
2018-09-24T13:13:27.144Z,1.47
2018-09-24T13:16:01.298Z,1.53
2018-09-24T13:18:34.986Z,2.87
2018-09-24T13:21:08.764Z,1.70
2018-09-24T13:23:42.273Z,2.53
2018-09-24T13:26:16.043Z,2.77
2018-09-24T13:28:49.801Z,2.20
2018-09-24T13:31:23.508Z,3.53
2018-09-24T13:33:57.698Z,1.30
2018-09-24T13:36:31.293Z,2.63
2018-09-24T13:39:04.770Z,2.83
2018-09-24T13:41:38.432Z,4.20
2018-09-24T13:44:12.375Z,3.23
2018-09-24T13:46:46.141Z,4.60
2018-09-24T13:49:22.057Z,5.67
2018-09-24T13:51:56.307Z,2.73
2018-09-24T13:54:29.976Z,4.83
2018-09-24T13:57:03.752Z,3.37
2018-09-24T13:59:37.412Z,2.13
2018-09-24T14:02:11.109Z,2.90
2018-09-24T14:04:44.809Z,4.63
2018-09-24T14:07:18.477Z,4.63
2018-09-24T14:09:52.109Z,2.70
2018-09-24T14:12:25.811Z,4.30
2018-09-24T14:14:59.519Z,3.40
2018-09-24T14:17:33.000Z,4.50
2018-09-24T14:20:06.783Z,3.93
2018-09-24T14:22:40.470Z,1.83
2018-09-24T14:25:14.070Z,3.10
2018-09-24T14:27:47.800Z,2.60
2018-09-24T14:30:21.270Z,1.63
2018-09-24T14:32:55.020Z,2.43
2018-09-24T14:35:28.785Z,3.50
2018-09-24T14:38:02.741Z,7.27
2018-09-24T14:40:36.610Z,2.73
2018-09-24T14:43:10.103Z,2.60
2018-09-24T14:45:43.651Z,2.83
2018-09-24T14:48:17.381Z,2.43
2018-09-24T14:50:51.141Z,5.20
2018-09-24T14:53:24.924Z,5.20
2018-09-24T14:55:58.677Z,5.33
2018-09-24T14:58:32.346Z,4.60
2018-09-24T15:01:06.134Z,2.10
2018-09-24T15:03:39.655Z,3.97
2018-09-24T15:06:13.596Z,6.07
2018-09-24T15:08:47.369Z,4.47
2018-09-24T15:11:21.199Z,2.10
2018-09-24T15:13:54.941Z,3.13
2018-09-24T15:16:28.778Z,2.93
2018-09-24T15:19:02.913Z,6.03
2018-09-24T15:21:36.579Z,5.57
2018-09-24T15:24:11.334Z,5.90
2018-09-24T15:26:45.115Z,2.93
2018-09-24T15:29:19.187Z,4.50
2018-09-24T15:31:53.029Z,3.23
2018-09-24T15:34:27.095Z,3.17
2018-09-24T15:37:00.954Z,21.43
2018-09-24T15:39:34.817Z,11.23
2018-09-24T15:42:19.024Z,4.83
2018-09-24T15:44:52.763Z,4.43
2018-09-24T15:47:26.490Z,5.17
2018-09-24T15:50:00.100Z,4.20
2018-09-24T15:52:33.704Z,2.63
2018-09-24T15:55:07.522Z,4.77
2018-09-24T15:57:41.177Z,4.97
2018-09-24T16:00:15.042Z,4.60
2018-09-24T16:02:48.688Z,3.53
2018-09-24T16:05:22.412Z,3.57
2018-09-24T16:07:56.318Z,6.50
2018-09-24T16:10:30.145Z,2.73
2018-09-24T16:13:03.919Z,3.70
2018-09-24T16:15:37.822Z,5.43
2018-09-24T16:18:11.638Z,8.07
2018-09-24T16:20:45.523Z,3.13
2018-09-24T16:23:19.375Z,4.33
2018-09-24T16:25:54.287Z,7.53
2018-09-24T16:28:30.615Z,11.70
2018-09-24T16:34:02.197Z,3.07
2018-09-24T16:36:36.023Z,5.10
2018-09-24T16:42:12.358Z,4.97
2018-09-24T16:44:46.139Z,7.83
2018-09-24T16:47:20.070Z,5.07
2018-09-24T16:49:56.711Z,3.83
2018-09-24T16:52:31.384Z,19.73
2018-09-24T16:55:05.290Z,5.23
2018-09-24T16:57:39.073Z,4.67
2018-09-24T17:00:37.874Z,16.23
2018-09-24T17:03:11.668Z,13.97
2018-09-24T17:05:45.366Z,6.07
2018-09-24T17:08:19.035Z,4.23
2018-09-24T17:10:52.757Z,5.20
2018-09-24T17:13:26.501Z,15.53
2018-09-24T17:16:00.265Z,5.47
2018-09-24T17:18:33.950Z,6.80
2018-09-24T17:21:08.602Z,42.03
2018-09-24T17:23:42.405Z,3.43
2018-09-24T17:26:16.232Z,41.43
2018-09-24T17:28:50.262Z,6.53
2018-09-24T17:31:24.015Z,7.00
2018-09-24T17:33:57.696Z,5.17
2018-09-24T17:36:31.505Z,6.60
2018-09-24T17:39:05.455Z,17.47
2018-09-24T17:41:39.344Z,5.87
2018-09-24T17:44:13.509Z,6.53
2018-09-24T17:46:55.817Z,3.87
2018-09-24T17:49:31.292Z,2.40
2018-09-24T17:52:05.667Z,2.67
2018-09-24T17:54:50.735Z,4.37
2018-09-24T17:57:24.603Z,5.53
2018-09-24T17:59:58.582Z,5.10
2018-09-24T18:02:32.529Z,5.23
2018-09-24T18:05:09.659Z,5.80
2018-09-24T18:07:43.654Z,13.30
2018-09-24T18:10:19.093Z,6.20
2018-09-24T18:12:55.550Z,25.53
2018-09-24T18:15:34.502Z,5.63
2018-09-24T18:18:09.883Z,5.77
2018-09-24T18:20:59.909Z,5.67
2018-09-24T18:23:36.145Z,5.17
2018-09-24T18:26:10.859Z,3.27
2018-09-24T18:28:46.017Z,4.00
2018-09-24T18:34:09.786Z,5.17
2018-09-24T18:36:45.390Z,4.90
2018-09-24T18:39:19.771Z,5.33
2018-09-24T18:41:54.891Z,7.87
2018-09-24T18:44:29.029Z,6.83
2018-09-24T18:47:03.590Z,7.70
2018-09-24T18:49:37.761Z,8.20
2018-09-24T18:52:23.598Z,4.93
2018-09-24T18:54:57.802Z,4.87
2018-09-24T18:57:31.808Z,5.67
2018-09-24T19:00:09.363Z,6.00
2018-09-24T19:02:43.447Z,12.07
2018-09-24T19:05:18.071Z,11.47
2018-09-24T19:07:52.659Z,12.57
2018-09-24T19:10:28.423Z,18.93
2018-09-24T19:13:02.871Z,11.03
2018-09-24T19:18:30.521Z,11.50
2018-09-24T19:21:14.183Z,7.23
2018-09-24T19:23:51.266Z,16.97
2018-09-24T19:29:05.052Z,7.47
2018-09-24T19:31:39.093Z,8.17
2018-09-24T19:40:05.124Z,4.40
2018-09-24T19:42:39.036Z,7.57
2018-09-24T19:45:13.164Z,10.37
2018-09-24T19:47:47.765Z,9.57
2018-09-24T19:53:11.496Z,7.07
2018-09-24T19:55:46.592Z,7.13
2018-09-24T19:58:21.543Z,7.20
2018-09-24T20:00:56.157Z,8.17
2018-09-24T20:03:31.734Z,7.73
2018-09-24T20:06:08.224Z,8.67
2018-09-24T20:08:42.229Z,7.97
2018-09-24T20:11:17.335Z,7.20
2018-09-24T20:13:52.473Z,11.03
2018-09-24T20:16:27.596Z,8.93
2018-09-24T20:19:01.753Z,10.47
2018-09-24T20:21:35.924Z,9.63
2018-09-24T20:24:14.710Z,6.83
2018-09-24T20:26:48.437Z,8.57
2018-09-24T20:29:22.269Z,7.73
2018-09-24T20:31:55.981Z,7.10
2018-09-24T20:34:30.034Z,5.40
2018-09-24T20:37:04.126Z,4.97
2018-09-24T20:39:37.951Z,13.10
2018-09-24T20:42:11.607Z,10.43
2018-09-24T20:44:45.884Z,7.73
2018-09-24T20:47:19.898Z,12.73
2018-09-24T20:49:53.773Z,10.17
2018-09-24T20:52:27.682Z,6.93
2018-09-24T20:55:01.445Z,5.87
2018-09-24T20:57:35.318Z,7.43
2018-09-24T21:00:09.162Z,6.10
2018-09-24T21:02:43.172Z,9.57
2018-09-24T21:05:16.778Z,6.07
2018-09-24T21:07:52.790Z,11.70
2018-09-24T21:10:26.386Z,6.77
2018-09-24T21:13:00.164Z,10.73
2018-09-24T21:15:34.139Z,6.83
2018-09-24T21:18:08.147Z,5.80
2018-09-24T21:20:42.623Z,6.70
2018-09-24T21:23:16.432Z,5.30
2018-09-24T21:25:50.436Z,9.77
2018-09-24T21:28:24.654Z,8.70
2018-09-24T21:31:00.621Z,5.70
2018-09-24T21:33:34.672Z,6.10
2018-09-24T21:36:09.158Z,4.23
2018-09-24T21:38:43.246Z,7.73
2018-09-24T21:41:17.191Z,6.53
2018-09-24T21:43:51.061Z,6.27
2018-09-24T21:46:25.540Z,5.90
2018-09-24T21:48:59.359Z,8.70
2018-09-24T21:51:33.430Z,8.07
2018-09-24T21:54:07.640Z,9.97
2018-09-24T21:56:41.478Z,10.17
2018-09-24T21:59:15.229Z,6.37
2018-09-24T22:01:49.112Z,8.90
2018-09-24T22:04:23.577Z,9.73
2018-09-24T22:06:58.529Z,11.77
2018-09-24T22:09:32.255Z,6.50
2018-09-24T22:12:06.303Z,8.30
2018-09-24T22:14:40.641Z,6.63
2018-09-24T22:17:14.675Z,7.90
2018-09-24T22:19:48.870Z,6.10
2018-09-24T22:22:22.817Z,7.67
2018-09-24T22:24:56.864Z,8.97
2018-09-24T22:27:30.546Z,9.00
2018-09-24T22:30:04.550Z,6.60
2018-09-24T22:32:38.333Z,3.93
2018-09-24T22:35:12.059Z,8.20
2018-09-24T22:37:46.004Z,8.73
2018-09-24T22:40:19.883Z,7.40
2018-09-24T22:42:53.745Z,7.13
2018-09-24T22:45:27.432Z,8.97
2018-09-24T22:48:01.725Z,5.50
2018-09-24T22:50:35.546Z,6.93
2018-09-24T22:53:09.457Z,6.53
2018-09-24T22:55:43.267Z,5.33
2018-09-24T22:58:17.521Z,9.03
2018-09-24T23:00:51.365Z,8.27
2018-09-24T23:03:25.217Z,5.63
2018-09-24T23:05:59.251Z,6.60
2018-09-24T23:08:33.136Z,7.47
2018-09-24T23:11:08.358Z,7.93
2018-09-24T23:13:42.261Z,5.33
2018-09-24T23:16:16.013Z,4.47
2018-09-24T23:18:49.717Z,6.83
2018-09-24T23:21:23.378Z,8.10
2018-09-24T23:23:57.225Z,6.20
2018-09-24T23:26:30.786Z,5.30
2018-09-24T23:29:04.425Z,7.63
2018-09-24T23:31:37.971Z,7.33
2018-09-24T23:34:12.410Z,4.87
2018-09-24T23:36:46.213Z,7.67
2018-09-24T23:39:20.040Z,4.87
2018-09-24T23:41:53.901Z,6.77
2018-09-24T23:44:33.652Z,11.67
2018-09-24T23:47:07.422Z,6.07
2018-09-24T23:49:41.316Z,8.47
2018-09-24T23:52:15.899Z,5.93
2018-09-24T23:54:49.662Z,11.43
2018-09-24T23:57:23.387Z,5.93
2018-09-24T23:59:58.313Z,7.00
